createdAt,value
2023-02-20T00:00:39.421Z,5.07
2023-02-20T00:03:06.941Z,4.10
2023-02-20T00:05:34.146Z,3.08
2023-02-20T00:08:01.119Z,3.65
2023-02-20T00:10:28.632Z,2.60
2023-02-20T00:12:55.629Z,2.10
2023-02-20T00:15:23.299Z,5.65
2023-02-20T00:17:50.376Z,3.70
2023-02-20T00:20:23.709Z,6.88
2023-02-20T00:22:51.538Z,4.97
2023-02-20T00:25:20.580Z,3.83
2023-02-20T00:27:48.038Z,3.45
2023-02-20T00:30:23.512Z,2.53
2023-02-20T00:32:52.733Z,4.22
2023-02-20T00:35:22.334Z,4.60
2023-02-20T00:37:50.562Z,3.88
2023-02-20T00:40:19.668Z,2.53
2023-02-20T00:42:46.750Z,4.50
2023-02-20T00:45:15.122Z,3.53
2023-02-20T00:47:42.163Z,4.68
2023-02-20T00:50:10.289Z,3.33
2023-02-20T00:52:39.547Z,5.47
2023-02-20T00:55:07.300Z,3.92
2023-02-20T00:57:34.224Z,4.22
2023-02-20T01:00:01.196Z,3.58
2023-02-20T01:02:28.412Z,3.45
2023-02-20T01:04:56.828Z,1.92
2023-02-20T01:07:23.935Z,4.38
2023-02-20T01:09:50.841Z,5.03
2023-02-20T01:12:18.096Z,2.78
2023-02-20T01:14:46.856Z,2.38
2023-02-20T01:17:14.961Z,5.60
2023-02-20T01:19:42.851Z,3.13
2023-02-20T01:22:12.379Z,4.25
2023-02-20T01:24:39.307Z,3.75
2023-02-20T01:27:06.805Z,3.08
2023-02-20T01:29:33.704Z,3.50
2023-02-20T01:32:01.038Z,6.97
2023-02-20T01:34:28.136Z,3.75
2023-02-20T01:36:56.787Z,1.67
2023-02-20T01:39:28.777Z,3.30
2023-02-20T01:42:00.205Z,2.20
2023-02-20T01:44:33.340Z,5.60
2023-02-20T01:47:01.895Z,3.03
2023-02-20T01:49:50.836Z,3.75
2023-02-20T01:52:21.877Z,3.50
2023-02-20T01:55:25.984Z,3.40
2023-02-20T01:58:05.125Z,4.28
2023-02-20T02:00:32.792Z,3.25
2023-02-20T02:03:08.851Z,3.67
2023-02-20T02:05:40.013Z,6.75
2023-02-20T02:08:10.777Z,3.45
2023-02-20T02:10:47.123Z,3.40
2023-02-20T02:13:13.977Z,3.80
2023-02-20T02:15:40.864Z,2.72
2023-02-20T02:18:36.517Z,4.25
2023-02-20T02:21:30.469Z,7.68
2023-02-20T02:24:21.584Z,4.93
2023-02-20T02:27:32.825Z,3.45
2023-02-20T02:30:05.623Z,3.78
2023-02-20T02:33:06.141Z,4.90
2023-02-20T02:35:35.955Z,2.95
2023-02-20T02:38:11.828Z,3.08
2023-02-20T02:41:20.117Z,2.83
2023-02-20T02:44:13.203Z,3.97
2023-02-20T02:47:03.311Z,4.40
2023-02-20T02:49:35.374Z,2.95
2023-02-20T02:52:04.069Z,4.90
2023-02-20T02:54:31.093Z,3.92
2023-02-20T02:57:21.641Z,6.82
2023-02-20T02:59:53.045Z,4.80
2023-02-20T03:02:25.580Z,3.50
2023-02-20T03:04:55.007Z,3.17
2023-02-20T03:07:23.725Z,2.80
2023-02-20T03:10:01.728Z,5.53
2023-02-20T03:12:31.079Z,5.75
2023-02-20T03:18:13.226Z,3.28
2023-02-20T03:20:45.514Z,4.88
2023-02-20T03:23:35.512Z,3.70
2023-02-20T03:26:22.543Z,3.35
2023-02-20T03:29:04.288Z,7.03
2023-02-20T03:31:42.604Z,4.57
2023-02-20T03:34:41.188Z,5.60
2023-02-20T03:37:40.173Z,6.15
2023-02-20T03:40:30.852Z,5.80
2023-02-20T03:43:25.135Z,3.25
2023-02-20T03:46:07.093Z,3.72
2023-02-20T03:48:49.262Z,3.22
2023-02-20T03:51:17.207Z,3.03
2023-02-20T03:54:00.452Z,5.68
2023-02-20T03:56:32.974Z,4.65
2023-02-20T03:59:18.676Z,5.95
2023-02-20T04:01:50.038Z,3.03
2023-02-20T04:04:23.523Z,3.15
2023-02-20T04:06:53.182Z,3.28
2023-02-20T04:09:27.120Z,4.18
2023-02-20T04:12:02.674Z,2.95
2023-02-20T04:14:32.304Z,4.03
2023-02-20T04:17:11.436Z,4.47
2023-02-20T04:19:38.431Z,2.78
2023-02-20T04:22:14.146Z,3.30
2023-02-20T04:24:48.038Z,3.10
2023-02-20T04:27:15.409Z,3.65
2023-02-20T04:29:49.234Z,4.85
2023-02-20T04:32:16.929Z,4.50
2023-02-20T04:34:43.951Z,6.75
2023-02-20T04:37:14.732Z,5.45
2023-02-20T04:39:42.656Z,3.55
2023-02-20T04:42:10.583Z,3.97
2023-02-20T04:44:40.103Z,3.92
2023-02-20T04:47:14.122Z,4.07
2023-02-20T04:49:41.500Z,3.55
2023-02-20T04:52:10.457Z,4.68
2023-02-20T04:54:38.007Z,4.03
2023-02-20T04:57:06.027Z,3.58
2023-02-20T04:59:33.063Z,3.25
2023-02-20T05:02:02.188Z,4.78
2023-02-20T05:04:29.741Z,3.30
2023-02-20T05:06:57.636Z,3.58
2023-02-20T05:09:24.709Z,4.30
2023-02-20T05:11:51.692Z,3.33
2023-02-20T05:14:19.006Z,5.22
2023-02-20T05:16:45.897Z,2.60
2023-02-20T05:19:13.898Z,3.30
2023-02-20T05:22:03.918Z,3.33
2023-02-20T05:24:32.263Z,3.92
2023-02-20T05:26:59.626Z,5.40
2023-02-20T05:29:26.648Z,4.80
2023-02-20T05:31:53.762Z,3.83
2023-02-20T05:34:25.842Z,3.92
2023-02-20T05:36:54.133Z,3.25
2023-02-20T05:39:21.666Z,3.30
2023-02-20T05:41:49.413Z,3.08
2023-02-20T05:44:16.584Z,4.18
2023-02-20T05:46:43.589Z,3.95
2023-02-20T05:49:11.054Z,5.35
2023-02-20T05:51:38.725Z,5.72
2023-02-20T05:54:06.112Z,4.68
2023-02-20T05:56:33.362Z,4.93
2023-02-20T05:59:00.959Z,3.88
2023-02-20T06:01:30.022Z,4.32
2023-02-20T06:03:57.072Z,5.55
2023-02-20T06:06:24.571Z,3.70
2023-02-20T06:08:51.837Z,7.25
2023-02-20T06:11:18.850Z,5.60
2023-02-20T06:13:46.737Z,5.20
2023-02-20T06:16:21.377Z,5.90
2023-02-20T06:18:48.338Z,6.95
2023-02-20T06:21:15.402Z,5.40
2023-02-20T06:23:46.068Z,4.28
2023-02-20T06:26:14.154Z,4.13
2023-02-20T06:28:41.329Z,6.50
2023-02-20T06:31:09.423Z,6.03
2023-02-20T06:33:37.192Z,4.25
2023-02-20T06:36:05.646Z,3.25
2023-02-20T06:38:32.580Z,4.28
2023-02-20T06:40:59.594Z,4.88
2023-02-20T06:43:26.577Z,4.70
2023-02-20T06:45:53.654Z,6.22
2023-02-20T06:48:20.754Z,6.03
2023-02-20T06:50:47.699Z,5.55
2023-02-20T06:53:14.761Z,4.72
2023-02-20T06:55:41.740Z,6.68
2023-02-20T06:58:11.110Z,8.20
2023-02-20T07:00:38.273Z,6.67
2023-02-20T07:03:05.357Z,8.55
2023-02-20T07:05:32.475Z,5.93
2023-02-20T07:07:59.403Z,7.80
2023-02-20T07:10:26.381Z,6.88
2023-02-20T07:12:53.344Z,3.85
2023-02-20T07:15:20.486Z,7.20
2023-02-20T07:17:47.596Z,5.00
2023-02-20T07:20:15.220Z,6.82
2023-02-20T07:22:54.440Z,8.77
2023-02-20T07:25:21.527Z,5.28
2023-02-20T07:27:51.299Z,7.45
2023-02-20T07:30:18.702Z,5.85
2023-02-20T07:32:45.856Z,6.35
2023-02-20T07:35:13.001Z,6.03
2023-02-20T07:37:40.004Z,6.05
2023-02-20T07:40:09.940Z,4.72
2023-02-20T07:42:36.951Z,6.47
2023-02-20T07:45:16.441Z,4.40
2023-02-20T07:47:44.843Z,7.18
2023-02-20T07:50:14.820Z,5.03
2023-02-20T07:52:45.133Z,5.43
2023-02-20T07:55:17.086Z,4.55
2023-02-20T07:57:49.652Z,3.80
2023-02-20T08:00:21.743Z,8.07
2023-02-20T08:03:00.724Z,5.22
2023-02-20T08:05:40.179Z,4.75
2023-02-20T08:08:13.641Z,7.95
2023-02-20T08:10:43.626Z,4.13
2023-02-20T08:13:18.560Z,5.47
2023-02-20T08:15:51.692Z,4.22
2023-02-20T08:18:23.811Z,3.85
2023-02-20T08:20:53.583Z,3.00
2023-02-20T08:23:29.885Z,6.07
2023-02-20T08:26:00.266Z,5.90
2023-02-20T08:30:59.541Z,5.50
2023-02-20T08:33:46.320Z,5.03
2023-02-20T08:36:37.760Z,6.70
2023-02-20T08:39:04.789Z,4.90
2023-02-20T08:41:31.980Z,7.63
2023-02-20T08:43:59.200Z,4.45
2023-02-20T08:46:26.117Z,5.70
2023-02-20T08:48:53.098Z,5.78
2023-02-20T08:51:21.839Z,6.00
2023-02-20T08:53:48.750Z,4.28
2023-02-20T08:56:19.377Z,5.55
2023-02-20T08:58:46.424Z,5.03
2023-02-20T09:01:13.578Z,5.05
2023-02-20T09:03:42.193Z,4.45
2023-02-20T09:06:09.243Z,6.60
2023-02-20T09:08:36.315Z,6.07
2023-02-20T09:11:04.098Z,4.22
2023-02-20T09:13:31.673Z,6.78
2023-02-20T09:15:58.615Z,5.55
2023-02-20T09:18:25.620Z,3.58
2023-02-20T09:20:52.765Z,3.08
2023-02-20T09:23:21.627Z,2.90
2023-02-20T09:25:49.422Z,4.20
2023-02-20T09:28:16.569Z,3.95
2023-02-20T09:30:43.619Z,3.38
2023-02-20T09:33:34.941Z,2.85
2023-02-20T09:36:02.314Z,4.32
2023-02-20T09:38:29.787Z,4.00
2023-02-20T09:41:00.252Z,3.78
2023-02-20T09:44:10.141Z,3.88
2023-02-20T09:46:37.800Z,4.82
2023-02-20T09:49:26.031Z,5.25
2023-02-20T09:51:57.499Z,5.82
2023-02-20T09:54:41.665Z,4.00
2023-02-20T09:57:19.363Z,7.80
2023-02-20T10:00:03.693Z,7.03
2023-02-20T10:02:48.024Z,4.57
2023-02-20T10:05:28.313Z,9.43
2023-02-20T10:08:03.567Z,4.43
2023-02-20T10:10:39.067Z,7.30
2023-02-20T10:13:31.277Z,6.45
2023-02-20T10:16:28.624Z,2.88
2023-02-20T10:19:44.018Z,6.65
2023-02-20T10:22:47.276Z,4.72
2023-02-20T10:25:33.644Z,3.30
2023-02-20T10:28:15.320Z,3.00
2023-02-20T10:30:49.337Z,4.07
2023-02-20T10:33:26.524Z,4.15
2023-02-20T10:36:08.853Z,2.85
2023-02-20T10:38:47.831Z,5.43
2023-02-20T10:42:00.310Z,5.65
2023-02-20T10:44:54.333Z,3.45
2023-02-20T10:47:43.132Z,5.63
2023-02-20T10:50:24.077Z,5.60
2023-02-20T10:53:17.793Z,7.43
2023-02-20T10:55:49.170Z,5.15
2023-02-20T10:58:26.259Z,5.45
2023-02-20T11:01:06.614Z,5.88
2023-02-20T11:06:16.763Z,4.88
2023-02-20T11:08:49.916Z,3.95
2023-02-20T11:11:24.720Z,3.60
2023-02-20T11:13:51.762Z,4.35
2023-02-20T11:16:26.719Z,3.63
2023-02-20T11:19:02.925Z,8.13
2023-02-20T11:21:35.894Z,8.13
2023-02-20T11:24:32.543Z,4.35
2023-02-20T11:27:25.457Z,8.10
2023-02-20T11:30:32.489Z,4.28
2023-02-20T11:33:21.453Z,3.40
2023-02-20T11:35:56.104Z,4.55
2023-02-20T11:38:23.034Z,3.95
2023-02-20T11:41:07.201Z,4.57
2023-02-20T11:43:43.554Z,4.20
2023-02-20T11:46:24.391Z,5.75
2023-02-20T11:49:08.780Z,5.97
2023-02-20T11:51:50.594Z,5.75
2023-02-20T11:54:31.288Z,3.95
2023-02-20T11:57:18.732Z,5.75
2023-02-20T11:59:48.643Z,4.55
2023-02-20T12:02:15.732Z,5.40
2023-02-20T12:05:08.778Z,2.80
2023-02-20T12:07:52.893Z,4.85
2023-02-20T12:10:31.324Z,5.03
2023-02-20T12:12:58.736Z,4.15
2023-02-20T12:15:29.062Z,5.53
2023-02-20T12:21:11.917Z,4.47
2023-02-20T12:24:09.130Z,2.92
2023-02-20T12:26:59.622Z,2.70
2023-02-20T12:29:48.494Z,3.78
2023-02-20T12:32:29.336Z,4.18
2023-02-20T12:35:34.985Z,5.13
2023-02-20T12:38:27.014Z,6.93
2023-02-20T12:41:08.170Z,9.48
2023-02-20T12:44:13.627Z,5.72
2023-02-20T12:47:03.129Z,4.75
2023-02-20T12:49:57.631Z,3.33
2023-02-20T12:52:31.171Z,3.65
2023-02-20T12:55:07.570Z,4.00
2023-02-20T12:57:53.321Z,7.60
2023-02-20T13:00:32.126Z,5.90
2023-02-20T13:03:17.237Z,2.40
2023-02-20T13:05:48.110Z,3.58
2023-02-20T13:08:31.150Z,6.88
2023-02-20T13:11:01.258Z,3.90
2023-02-20T13:14:01.699Z,4.30
2023-02-20T13:16:40.812Z,5.47
2023-02-20T13:19:36.160Z,2.80
2023-02-20T13:22:04.321Z,4.95
2023-02-20T13:24:33.383Z,3.15
2023-02-20T13:27:09.199Z,3.42
2023-02-20T13:29:58.928Z,4.25
2023-02-20T13:32:29.567Z,2.92
2023-02-20T13:35:35.150Z,5.20
2023-02-20T13:38:22.677Z,2.72
2023-02-20T13:40:55.515Z,2.42
2023-02-20T13:43:22.428Z,3.17
2023-02-20T13:46:13.523Z,2.55
2023-02-20T13:48:43.402Z,1.80
2023-02-20T13:51:22.333Z,2.47
2023-02-20T13:53:51.004Z,2.17
2023-02-20T13:56:30.586Z,2.67
2023-02-20T13:58:59.294Z,3.85
2023-02-20T14:01:26.516Z,1.83
2023-02-20T14:04:05.857Z,3.45
2023-02-20T14:06:33.184Z,1.58
2023-02-20T14:09:31.349Z,3.40
2023-02-20T14:12:13.370Z,2.47
2023-02-20T14:14:45.872Z,5.18
2023-02-20T14:17:21.060Z,2.70
2023-02-20T14:20:05.282Z,2.30
2023-02-20T14:22:39.903Z,2.88
2023-02-20T14:25:24.448Z,1.77
2023-02-20T14:27:52.198Z,2.22
2023-02-20T14:30:26.191Z,3.67
2023-02-20T14:32:56.540Z,5.00
2023-02-20T14:35:45.407Z,3.22
2023-02-20T14:38:42.682Z,3.10
2023-02-20T14:41:17.679Z,3.13
2023-02-20T14:43:44.820Z,1.63
2023-02-20T14:46:34.043Z,1.58
2023-02-20T14:49:25.089Z,2.17
2023-02-20T14:51:53.489Z,1.70
2023-02-20T14:54:24.530Z,1.75
2023-02-20T14:56:55.495Z,1.50
2023-02-20T14:59:35.306Z,2.85
2023-02-20T15:02:31.383Z,3.30
2023-02-20T15:05:07.486Z,4.10
2023-02-20T15:07:36.978Z,7.85
2023-02-20T15:10:08.294Z,3.53
2023-02-20T15:12:40.585Z,3.70
2023-02-20T15:15:13.342Z,5.50
2023-02-20T15:17:42.597Z,4.47
2023-02-20T15:20:20.419Z,6.87
2023-02-20T15:22:47.667Z,5.07
2023-02-20T15:25:27.184Z,6.47
2023-02-20T15:28:05.176Z,5.57
2023-02-20T15:30:32.296Z,5.90
2023-02-20T15:32:59.598Z,3.47
2023-02-20T15:35:29.738Z,4.43
2023-02-20T15:38:01.396Z,4.75
2023-02-20T15:40:31.985Z,6.82
2023-02-20T15:43:04.364Z,3.55
2023-02-20T15:45:32.388Z,5.00
2023-02-20T15:47:59.404Z,4.03
2023-02-20T15:50:27.476Z,3.95
2023-02-20T15:52:58.840Z,4.30
2023-02-20T15:55:27.177Z,4.95
2023-02-20T15:57:56.892Z,2.80
2023-02-20T16:00:32.977Z,2.78
2023-02-20T16:03:01.626Z,4.70
2023-02-20T16:05:28.975Z,3.55
2023-02-20T16:07:56.044Z,4.75
2023-02-20T16:10:26.359Z,3.17
2023-02-20T16:12:58.821Z,2.80
2023-02-20T16:15:26.472Z,4.45
2023-02-20T16:17:54.246Z,3.60
2023-02-20T16:20:27.827Z,8.70
2023-02-20T16:22:55.382Z,5.30
2023-02-20T16:25:23.676Z,5.68
2023-02-20T16:27:54.497Z,5.40
2023-02-20T16:30:38.236Z,3.10
2023-02-20T16:33:19.596Z,5.25
2023-02-20T16:35:48.494Z,2.63
2023-02-20T16:38:15.869Z,5.00
2023-02-20T16:40:43.088Z,4.28
2023-02-20T16:43:15.742Z,3.45
2023-02-20T16:45:45.502Z,2.38
2023-02-20T16:48:18.598Z,2.90
2023-02-20T16:50:49.877Z,4.57
2023-02-20T16:53:16.927Z,3.42
2023-02-20T16:55:44.550Z,3.45
2023-02-20T16:58:11.878Z,4.72
2023-02-20T17:00:55.126Z,4.35
2023-02-20T17:03:24.256Z,3.17
2023-02-20T17:05:58.600Z,3.50
2023-02-20T17:08:26.837Z,6.40
2023-02-20T17:10:53.966Z,12.70
2023-02-20T17:13:21.237Z,5.35
2023-02-20T17:15:48.189Z,9.10
2023-02-20T17:18:15.715Z,8.68
2023-02-20T17:20:42.680Z,7.60
2023-02-20T17:23:09.803Z,5.80
2023-02-20T17:25:36.715Z,5.20
2023-02-20T17:28:05.368Z,4.97
2023-02-20T17:30:32.588Z,8.15
2023-02-20T17:32:59.593Z,8.88
2023-02-20T17:35:26.567Z,7.10
2023-02-20T17:37:53.455Z,10.02
2023-02-20T17:40:20.581Z,12.23
2023-02-20T17:42:47.577Z,15.15
2023-02-20T17:45:15.681Z,18.60
2023-02-20T17:47:45.788Z,12.57
2023-02-20T17:50:12.737Z,10.25
2023-02-20T17:52:39.743Z,80.65
2023-02-20T17:55:06.930Z,38.40
2023-02-20T17:57:33.868Z,23.73
2023-02-20T18:00:01.049Z,9.20
2023-02-20T18:02:29.387Z,6.28
2023-02-20T18:04:56.450Z,6.30
2023-02-20T18:07:23.699Z,5.88
2023-02-20T18:09:50.791Z,6.80
2023-02-20T18:12:18.029Z,4.90
2023-02-20T18:14:45.933Z,5.55
2023-02-20T18:17:13.387Z,4.28
2023-02-20T18:19:40.368Z,4.43
2023-02-20T18:22:07.414Z,4.22
2023-02-20T18:24:34.643Z,5.30
2023-02-20T18:27:01.618Z,5.15
2023-02-20T18:29:30.176Z,5.65
2023-02-20T18:31:57.808Z,5.47
2023-02-20T18:34:26.026Z,9.57
2023-02-20T18:36:53.986Z,9.52
2023-02-20T18:39:21.406Z,9.45
2023-02-20T18:41:56.983Z,56.42
2023-02-20T18:45:11.777Z,196.13
2023-02-20T18:47:40.963Z,138.98
2023-02-20T18:50:08.419Z,72.10
2023-02-20T18:52:35.478Z,14.68
2023-02-20T18:55:02.392Z,5.55
2023-02-20T18:57:29.689Z,5.03
2023-02-20T18:59:56.602Z,8.95
2023-02-20T19:02:23.597Z,5.45
2023-02-20T19:04:50.583Z,5.00
2023-02-20T19:07:17.539Z,7.65
2023-02-20T19:09:44.481Z,8.45
2023-02-20T19:12:12.136Z,2.65
2023-02-20T19:14:39.789Z,4.28
2023-02-20T19:17:08.162Z,3.58
2023-02-20T19:19:35.120Z,3.47
2023-02-20T19:22:02.394Z,5.80
2023-02-20T19:24:29.489Z,6.13
2023-02-20T19:26:58.483Z,6.97
2023-02-20T19:29:25.501Z,5.28
2023-02-20T19:31:52.762Z,4.47
2023-02-20T19:34:19.957Z,3.30
2023-02-20T19:36:47.083Z,4.50
2023-02-20T19:39:15.062Z,5.00
2023-02-20T19:41:42.117Z,5.65
2023-02-20T19:44:13.777Z,2.72
2023-02-20T19:46:40.764Z,3.05
2023-02-20T19:49:13.173Z,2.25
2023-02-20T19:51:46.326Z,4.90
2023-02-20T19:54:13.189Z,4.78
2023-02-20T19:56:45.333Z,4.32
2023-02-20T19:59:12.226Z,3.47
2023-02-20T20:01:39.297Z,6.20
2023-02-20T20:04:06.555Z,7.60
2023-02-20T20:06:33.757Z,7.97
2023-02-20T20:09:13.733Z,5.63
2023-02-20T20:11:43.752Z,2.92
2023-02-20T20:14:10.751Z,2.72
2023-02-20T20:16:38.037Z,5.38
2023-02-20T20:19:06.263Z,4.68
2023-02-20T20:21:33.856Z,4.95
2023-02-20T20:24:00.922Z,5.57
2023-02-20T20:26:32.420Z,4.20
2023-02-20T20:28:59.752Z,6.05
2023-02-20T20:31:28.331Z,6.45
2023-02-20T20:33:55.437Z,4.05
2023-02-20T20:36:22.351Z,3.85
2023-02-20T20:38:49.222Z,4.68
2023-02-20T20:41:16.237Z,3.75
2023-02-20T20:43:47.191Z,4.40
2023-02-20T20:46:15.408Z,4.55
2023-02-20T20:48:43.540Z,3.05
2023-02-20T20:51:15.198Z,2.92
2023-02-20T20:53:43.611Z,4.93
2023-02-20T20:56:11.089Z,3.72
2023-02-20T20:58:38.091Z,2.92
2023-02-20T21:01:05.996Z,5.20
2023-02-20T21:03:32.879Z,4.68
2023-02-20T21:06:00.105Z,3.50
2023-02-20T21:08:27.221Z,4.28
2023-02-20T21:10:54.548Z,3.85
2023-02-20T21:13:21.570Z,3.92
2023-02-20T21:15:48.586Z,4.43
2023-02-20T21:18:15.566Z,3.60
2023-02-20T21:20:43.088Z,5.18
2023-02-20T21:23:11.029Z,6.82
2023-02-20T21:25:38.645Z,6.70
2023-02-20T21:28:05.584Z,8.05
2023-02-20T21:30:32.696Z,6.50
2023-02-20T21:32:59.713Z,8.43
2023-02-20T21:35:26.651Z,9.02
2023-02-20T21:37:54.547Z,7.47
2023-02-20T21:40:21.563Z,4.95
2023-02-20T21:43:07.192Z,4.10
2023-02-20T21:45:36.449Z,4.47
2023-02-20T21:48:04.668Z,4.85
2023-02-20T21:50:31.944Z,11.98
2023-02-20T21:52:59.093Z,16.67
2023-02-20T21:55:26.343Z,5.28
2023-02-20T21:57:53.601Z,7.13
2023-02-20T22:00:20.589Z,8.10
2023-02-20T22:02:47.496Z,6.75
2023-02-20T22:05:14.438Z,7.20
2023-02-20T22:07:59.948Z,7.55
2023-02-20T22:10:48.637Z,6.45
2023-02-20T22:13:34.190Z,6.05
2023-02-20T22:16:19.643Z,5.65
2023-02-20T22:19:05.370Z,4.43
2023-02-20T22:21:50.768Z,4.28
2023-02-20T22:24:39.070Z,4.65
2023-02-20T22:27:27.159Z,4.68
2023-02-20T22:30:13.544Z,4.47
2023-02-20T22:32:59.851Z,5.82
2023-02-20T22:35:45.630Z,5.20
2023-02-20T22:38:31.116Z,6.38
2023-02-20T22:41:19.301Z,5.25
2023-02-20T22:44:10.722Z,6.32
2023-02-20T22:46:59.532Z,6.07
2023-02-20T22:49:48.022Z,5.20
2023-02-20T22:52:33.507Z,5.88
2023-02-20T22:55:19.288Z,5.65
2023-02-20T22:58:05.142Z,4.53
2023-02-20T23:00:50.582Z,6.38
2023-02-20T23:03:36.468Z,6.88
2023-02-20T23:06:21.956Z,9.20
2023-02-20T23:09:08.549Z,6.60
2023-02-20T23:11:55.312Z,7.28
2023-02-20T23:14:41.657Z,5.82
2023-02-20T23:17:36.376Z,7.30
2023-02-20T23:20:30.346Z,5.03
2023-02-20T23:23:19.428Z,7.78
2023-02-20T23:26:05.426Z,6.18
2023-02-20T23:28:50.999Z,7.80
2023-02-20T23:31:37.131Z,5.40
2023-02-20T23:34:23.314Z,7.05
2023-02-20T23:37:11.931Z,4.63
2023-02-20T23:39:57.354Z,5.72
2023-02-20T23:42:42.960Z,5.22
2023-02-20T23:45:28.785Z,5.18
2023-02-20T23:48:14.490Z,7.22
2023-02-20T23:51:00.278Z,6.63
2023-02-20T23:53:46.895Z,7.05
2023-02-20T23:56:32.990Z,5.35
2023-02-20T23:59:18.876Z,5.22
